London Corbin Airport Magee Field London US
ICAO: KLOZ
IATA: LOZ
Category: Medium
Scheduled Services: No

Elevation: 1212 ft
TransAlt. 18000 ft.

Airport Communications:
ASOS:119.075
INDIANAPOLIS CNTR:121.325
LOUISVILLE RDO:122.2
CTAF/UNICOM:123

KLOZ Zoom In..

Runways:

(A) RW 06 length 5751 ft width 150 ft
ILS 110.90 / hdg 57

(B) RW 24 length 5751 ft width 150 ft
---- / hdg 237

Location; KLOZ
Day. 24 / Time. 12.53 Zulu
* Altimeter: 30.18
* Temperature: 20° c. 68°f.
* Wind from: 070° Speed 04 kn.
Dewpoint: 17° c.
Visibility: 10 Statute Miles.
Clouds: Clear (automated report).

KLOZ 241253Z AUTO 07004KT 10SM CLR 20/17 A3018 RMK AO2 SLP207 T02000167


Wind From 070°
Speed 04 kn.

 
 
jpsmedia.com for Web Design SOUNDCLOUD worldairports.se 2018   terms of use